Guffin Bay, New York
Current Conditions -  °F | °C
As of 12:56 AM on Wednesday 26 Nov 2014 (Local Time) from KART Reporting Station
Broken Clouds Broken Clouds  
Wind Chill: 30°   Ceiling: 4300
Heat Index: 38°   Visibility: 10mi
Dew Point: 24°   Wind: 13mph
Humidity: 57%   Direction: 270°W
Pressure: 30.19"   Gusts: NA
Location:  44.0116°N, 76.0789°W
Report Text: KART 260556Z AUTO 27011KT 10SM BKN043 03/M04 A3019 RMK AO2 SLP225 60000 T00331044 10039 20033 51015
Loading
Personal Weather Stations






























Interactive Weather Map New forecast layout! Learn more

10-Day Weather Forecast

Advertisements
Track Severe Weather on mobile